Tiempo atmosférico en la estación meteorológica de Buitrago del Lozoya, Madrid (1026 m.)

Fecha
DESCASC
Temp. máxima en grados centígrados (hora)
DESCASC
Temp. mínima en grados centígrados (hora)
DESCASC
Temp. media en grados centígrados
DESCASC
Racha de viento máxima en m/sg (hora)
DESCASC
Velocidad máxima media en intervalos de 10 minutos(hora)
DESCASC
Precipitaciones diarias en mm
DESCASC
Precipitaciones de 00:00 a 06:00 en mm
DESCASC
Precipitaciones de 06:00 a 12:00 en mm
DESCASC
Precipitaciones de 12:00 a 18:00 en mm
DESCASC
Precipitaciones de 18:00 a 24:00 en mm
DESCASC
21-08-2017 33.7 (18:00) 10.5 (07:40) 22.1 7.22 (18:10) 3.06 (14:10) 0 0 0 0 0
20-08-2017 33.9 (17:40) 11.3 (06:30) 22.6 7.5 (00:10) 3.61 (18:40) 0 0 0 0 0
19-08-2017 32.2 (17:50) 12.1 (07:50) 22.2 9.44 (23:59) 4.17 (23:59) 0 0 0 0 0
18-08-2017 32.6 (16:20) 13.7 (06:30) 23.1 10.56 (13:50) 5.28 (13:50) 0 0 0 0 0
17-08-2017 34.2 (17:20) 12.5 (00:00) 23.4 6.94 (17:00) 3.33 (18:10) 0 0 0 0 0
16-08-2017 31.8 (16:10) 11.5 (00:00) 21.6 8.33 (14:20) 3.89 (18:00) 0 0 0 0 0
15-08-2017 31.1 (14:40) 12.8 (00:00) 22 8.89 (15:00) 4.17 (17:40) 0 0 0 0 0
14-08-2017 31.5 (17:20) 11.3 (07:10) 21.4 11.11 (16:20) 5 (16:20) 0 0 0 0 0
13-08-2017 30.6 (18:30) 8.7 (00:00) 19.7 7.5 (16:10) 3.61 (15:40) 0 0 0 0 0
12-08-2017 30.5 (19:20) 6.3 (00:00) 18.4 7.78 (17:20) 3.06 (17:00) 0 0 0 0 0
11-08-2017 26.3 (18:00) 6.3 (00:00) 16.3 8.61 (13:10) 4.17 (13:10) 0 0 0 0 0
10-08-2017 23.3 (19:00) 3.6 (00:00) 13.4 10.83 (00:50) 5 (00:50) 0 0 0 0 0
09-08-2017 23.6 (15:50) 6.7 (00:00) 15.2 13.06 (17:20) 6.39 (13:20) 0 0 0 0 0
08-08-2017 24.8 (18:00) 13.5 (00:00) 19.1 10.28 (03:10) 5 (03:10) 0 0 0 0 0
07-08-2017 32.8 (18:20) 12.5 (00:00) 22.6 9.44 (14:40) 4.72 (16:30) 0 0 0 0 0
06-08-2017 33.4 (18:50) 14 (00:00) 23.7 7.78 (15:00) 3.61 (14:00) 0 0 0 0 0
05-08-2017 35.1 (15:30) 16.5 (00:00) 25.8 7.78 (19:00) 3.89 (19:00) 0 0 0 0 0
04-08-2017 34.2 (17:40) 19.1 (00:00) 26.7 7.22 (16:40) 3.61 (11:30) 0 0 0 0 0
03-08-2017 34.3 (17:50) 11.7 (00:00) 23 7.78 (18:40) 4.17 (18:40) 0 0 0 0 0
02-08-2017 31.4 (16:20) 10.9 (00:00) 21.1 6.67 (16:40) 3.33 (19:20) 0 0 0 0 0
01-08-2017 29.2 (17:30) 13.2 (00:00) 21.2 9.72 (16:20) 4.44 (15:30) 0 0 0 0 0
31-07-2017 31.1 (17:10) 12.3 (00:00) 21.7 12.22 (16:10) 6.11 (15:30) 0 0 0 0 0
30-07-2017 33.2 (17:50) 14.2 (00:00) 23.7 9.72 (14:30) 5 (14:20) 0 0 0 0 0
29-07-2017 32.8 (18:20) 13.4 (00:00) 23.1 9.17 (15:10) 4.17 (15:20) 0 0 0 0 0
28-07-2017 34 (17:40) 14.5 (00:00) 24.3 8.06 (18:50) 4.44 (18:50) 0 0 0 0 0
27-07-2017 33.5 (17:20) 11.1 (00:00) 22.3 10 (15:50) 4.72 (16:20) 0 0 0 0 0
26-07-2017 29.7 (18:50) 11 (00:00) 20.4 10 (14:10) 4.44 (11:30) 0 0 0 0 0
25-07-2017 26.5 (18:00) 9.6 (00:00) 18.1 10.83 (13:00) 5 (19:40) 0 0 0 0 0
24-07-2017 27.1 (17:50) 13.8 (00:00) 20.5 8.89 (16:40) 4.44 (16:10) 0 0 0 0 0
23-07-2017 29.9 (15:30) 11.6 (00:00) 20.8 9.44 (18:30) 5.56 (18:10) 0 0 0 0 0

Gráficas

Temp. máximas Temp. mínimas Temp. medias Precipitaciones Rachas de viento máximas Velocidades máximas media en intervalos de 10 minutos

Datos horarios

Fecha y hora oficial Temperatura (ºC) Velocidad del viento (km/h) Dirección del viento Racha (km/h) Dirección de racha Precipitación (mm) Presión (hPa) Tendencia (hPa) Humedad (%)
2017-08-21 23:00:00 22 3 Oeste 8 Noroeste 0 -- -- 48
2017-08-21 22:00:00 24.8 4 Noroeste 7 Noroeste 0 -- -- 43
2017-08-21 21:00:00 29.4 3 Nordeste 21 Nordeste 0 -- -- 38
2017-08-21 20:00:00 31.6 8 Nordeste 22 Nordeste 0 -- -- 37
2017-08-21 19:00:00 32.9 9 Norte 26 Nordeste 0 -- -- 36
2017-08-21 18:00:00 33.2 10 Nordeste 22 Norte 0 -- -- 35
2017-08-21 17:00:00 32.8 10 Nordeste 21 Nordeste 0 -- -- 35
2017-08-21 16:00:00 32.5 9 Nordeste 23 Noroeste 0 -- -- 36
2017-08-21 15:00:00 31.2 11 Nordeste 23 Este 0 -- -- 36
2017-08-21 14:00:00 30.9 10 Nordeste 21 Nordeste 0 -- -- 38
2017-08-21 13:00:00 29.6 7 Nordeste 15 Este 0 -- -- 41
2017-08-21 12:00:00 28.5 5 Nordeste 12 Este 0 -- -- 38
2017-08-21 11:00:00 25.9 3 Norte 9 Nordeste 0 -- -- 40
2017-08-21 10:00:00 20.8 5 Oeste 9 Oeste 0 -- -- 48
2017-08-21 09:00:00 16.8 0 Calma 6 Noroeste 0 -- -- 59
2017-08-21 08:00:00 10.8 0 Calma 4 Nordeste 0 -- -- 71
2017-08-21 07:00:00 10.7 0 Calma 6 Noroeste 0 -- -- 69
2017-08-21 06:00:00 11.7 0 Calma 7 Noroeste 0 -- -- 64
2017-08-21 05:00:00 12.6 2 Nordeste 9 Noroeste 0 -- -- 63
2017-08-21 04:00:00 13.1 2 Noroeste 7 Nordeste 0 -- -- 60
2017-08-21 03:00:00 15.8 8 Noroeste 12 Noroeste 0 -- -- 56
2017-08-21 02:00:00 15.3 2 Noroeste 6 Oeste 0 -- -- 54
2017-08-21 01:00:00 16.7 5 Oeste 8 Oeste 0 -- -- 48
2017-08-21 00:00:00 19.7 0 Calma 8 Oeste 0 -- -- 45
2017-08-20 23:00:00 21.6 0 Calma 11 Norte 0 -- -- 38
2017-08-20 22:00:00 26.7 6 Norte 17 Norte 0 -- -- 32
2017-08-20 21:00:00 28.8 7 Noroeste 19 Norte 0 -- -- 30
2017-08-20 20:00:00 32.1 7 Noroeste 22 Norte 0 -- -- 30
2017-08-20 19:00:00 32.9 10 Noroeste 24 Norte 0 -- -- 30
2017-08-20 18:00:00 33.7 6 Noroeste 19 Noroeste 0 -- -- 30
2017-08-20 17:00:00 -- 6 Nordeste 15 Este 0 -- -- --
2017-08-20 16:00:00 33.1 4 Norte 15 Oeste 0 -- -- 33
2017-08-20 15:00:00 31.6 7 Nordeste 17 Nordeste 0 -- -- 34
2017-08-20 14:00:00 30.4 3 Nordeste 20 Este 0 -- -- 34
2017-08-20 13:00:00 30.3 4 Norte 15 Norte 0 -- -- 35
2017-08-20 12:00:00 28.3 5 Nordeste 13 Este 0 -- -- 37
2017-08-20 11:00:00 26 4 Norte 10 Norte 0 -- -- 42
2017-08-20 10:00:00 22.5 0 Calma 5 Nordeste 0 -- -- 49
2017-08-20 09:00:00 18.5 3 Nordeste 9 Oeste 0 -- -- 59
2017-08-20 08:00:00 12.8 6 Oeste 10 Oeste 0 -- -- 74
2017-08-20 07:00:00 13.3 6 Oeste 10 Noroeste 0 -- -- 74
2017-08-20 06:00:00 11.9 4 Noroeste 7 Noroeste 0 -- -- 72
2017-08-20 05:00:00 14.4 2 Norte 10 Noroeste 0 -- -- 70
2017-08-20 04:00:00 14.7 4 Noroeste 8 Oeste 0 -- -- 63
2017-08-20 03:00:00 17.3 5 Oeste 9 Noroeste 0 -- -- 54
2017-08-20 02:00:00 21.2 3 Noroeste 21 Norte 0 -- -- 39
2017-08-20 01:00:00 22.9 8 Norte 27 Norte 0 -- -- 43
2017-08-20 00:00:00 23 15 Noroeste 34 Norte 0 -- -- 46
2017-08-19 23:00:00 21.3 4 Norte 15 Noroeste 0 -- -- 48
2017-08-19 22:00:00 25.1 7 Noroeste 22 Norte 0 -- -- 42
2017-08-19 21:00:00 26.9 9 Noroeste 28 Norte 0 -- -- 41
2017-08-19 20:00:00 30.4 8 Noroeste 21 Noroeste 0 -- -- 35
2017-08-19 19:00:00 31.5 9 Noroeste 23 Noroeste 0 -- -- 34
2017-08-19 18:00:00 32 9 Noroeste 25 Oeste 0 -- -- 34
2017-08-19 17:00:00 30.8 10 Noroeste 21 Noroeste 0 -- -- 37
2017-08-19 16:00:00 32 8 Oeste 19 Oeste 0 -- -- 37
2017-08-19 15:00:00 30.9 8 Oeste 19 Este 0 -- -- 38
2017-08-19 14:00:00 30.3 7 Nordeste 18 Norte 0 -- -- 39
2017-08-19 13:00:00 29.6 5 Nordeste 15 Este 0 -- -- 40
2017-08-19 12:00:00 28.4 4 Nordeste 13 Este 0 -- -- 42
2017-08-19 11:00:00 26.4 0 Calma 8 Nordeste 0 -- -- 45
2017-08-19 10:00:00 22.4 3 Norte 8 Oeste 0 -- -- 53
2017-08-19 09:00:00 17.1 4 Oeste 9 Oeste 0 -- -- 67
2017-08-19 08:00:00 12.3 4 Noroeste 8 Nordeste 0 -- -- 74
2017-08-19 07:00:00 13.1 0 Calma 6 Oeste 0 -- -- 70
2017-08-19 06:00:00 14.5 3 Nordeste 10 Oeste 0 -- -- 67
2017-08-19 05:00:00 14.7 2 Noroeste 5 Oeste 0 -- -- 66
2017-08-19 04:00:00 15.7 0 Calma 7 Oeste 0 -- -- 61
2017-08-19 03:00:00 17.6 5 Oeste 12 Oeste 0 -- -- 55
2017-08-19 02:00:00 19.1 5 Oeste 12 Oeste 0 -- -- 52
2017-08-19 01:00:00 22.2 5 Noroeste 20 Norte 0 -- -- 48
2017-08-19 00:00:00 23.7 11 Norte 22 Noroeste 0 -- -- 45
2017-08-18 23:00:00 24.7 5 Oeste 14 Oeste 0 -- -- 40
2017-08-18 22:00:00 25.7 8 Noroeste 18 Norte 0 -- -- 36
2017-08-18 21:00:00 27.6 5 Norte 18 Noroeste 0 -- -- 31
2017-08-18 20:00:00 29.9 13 Noroeste 27 Oeste 0 -- -- 30
2017-08-18 19:00:00 31.2 16 Noroeste 30 Noroeste 0 -- -- 30
2017-08-18 18:00:00 32.1 14 Noroeste 32 Oeste 0 -- -- 31
2017-08-18 17:00:00 32 19 Noroeste 35 Oeste 0 -- -- 31
2017-08-18 16:00:00 32 16 Noroeste 32 Noroeste 0 -- -- 34
2017-08-18 15:00:00 31.5 15 Noroeste 33 Noroeste 0 -- -- 34
2017-08-18 14:00:00 30 18 Noroeste 38 Oeste 0 -- -- 36
2017-08-18 13:00:00 31.7 8 Nordeste 21 Noroeste 0 -- -- 34
2017-08-18 12:00:00 30.9 5 Nordeste 11 Este 0 -- -- 36
2017-08-18 11:00:00 29.5 4 Nordeste 9 Norte 0 -- -- 38
2017-08-18 10:00:00 24 5 Oeste 12 Oeste 0 -- -- 50
2017-08-18 09:00:00 20 3 Nordeste 6 Nordeste 0 -- -- 58
2017-08-18 08:00:00 14.6 3 Noroeste 9 Noroeste 0 -- -- 69
2017-08-18 07:00:00 14.7 5 Oeste 9 Oeste 0 -- -- 69
2017-08-18 06:00:00 14.4 0 Calma 5 Noroeste 0 -- -- 67
2017-08-18 05:00:00 15.4 3 Noroeste 8 Nordeste 0 -- -- 64
2017-08-18 04:00:00 16.4 3 Noroeste 9 Noroeste 0 -- -- 60
2017-08-18 03:00:00 17.4 2 Nordeste 8 Noroeste 0 -- -- 56
2017-08-18 02:00:00 19.2 4 Noroeste 8 Noroeste 0 -- -- 53
2017-08-18 01:00:00 19.5 3 Noroeste 7 Noroeste 0 -- -- 51
2017-08-18 00:00:00 20.4 0 Calma 5 Noroeste 0 -- -- 47
2017-08-17 23:00:00 22.6 4 Noroeste 8 Oeste 0 -- -- 44
2017-08-17 22:00:00 25.3 3 Noroeste 8 Noroeste 0 -- -- 40
2017-08-17 21:00:00 28.7 3 Noroeste 12 Norte 0 -- -- 38
2017-08-17 20:00:00 30.7 5 Nordeste 21 Noroeste 0 -- -- 36
2017-08-17 19:00:00 32.5 8 Norte 23 Nordeste 0 -- -- 34
2017-08-17 18:00:00 32.8 8 Nordeste 23 Norte 0 -- -- 34
2017-08-17 17:00:00 33.4 12 Nordeste 25 Nordeste 0 -- -- 34
2017-08-17 16:00:00 32.9 8 Norte 24 Nordeste 0 -- -- 34
2017-08-17 15:00:00 32.3 8 Norte 18 Nordeste 0 -- -- 35
2017-08-17 14:00:00 32.1 4 Norte 16 Nordeste 0 -- -- 37
2017-08-17 13:00:00 30.3 6 Nordeste 16 Este 0 -- -- 39
2017-08-17 12:00:00 29.3 4 Nordeste 12 Norte 0 -- -- 41
2017-08-17 11:00:00 26.9 2 Nordeste 7 Nordeste 0 -- -- 45
2017-08-17 10:00:00 22.6 0 Calma 6 Nordeste 0 -- -- 50
2017-08-17 09:00:00 18 3 Nordeste 8 Norte 0 -- -- 58
2017-08-17 08:00:00 13 0 Calma 10 Noroeste 0 -- -- 65
2017-08-17 07:00:00 14.4 7 Oeste 11 Oeste 0 -- -- 62
2017-08-17 06:00:00 12.7 5 Oeste 8 Oeste 0 -- -- 65
2017-08-17 05:00:00 13.2 2 Norte 6 Noroeste 0 -- -- 61
2017-08-17 04:00:00 14.5 3 Noroeste 8 Noroeste 0 -- -- 58
2017-08-17 03:00:00 16.7 6 Oeste 10 Noroeste 0 -- -- 53
2017-08-17 02:00:00 18 5 Oeste 11 Oeste 0 -- -- 47
2017-08-17 01:00:00 19.1 3 Norte 8 Este 0 -- -- 44
2017-08-17 00:00:00 20.7 2 Noroeste 10 Noroeste 0 -- -- 40
2017-08-16 23:00:00 22.1 0 Calma 9 Norte 0 -- -- 39
2017-08-16 22:00:00 24.6 6 Norte 11 Noroeste 0 -- -- 37
2017-08-16 21:00:00 27.2 4 Noroeste 19 Noroeste 0 -- -- 33
2017-08-16 20:00:00 29.6 10 Noroeste 24 Noroeste 0 -- -- 34
2017-08-16 19:00:00 30.2 14 Noroeste 24 Noroeste 0 -- -- 34
2017-08-16 18:00:00 30.7 14 Noroeste 27 Oeste 0 -- -- 34
2017-08-16 17:00:00 30.8 12 Noroeste 26 Noroeste 0 -- -- 34
2017-08-16 16:00:00 31.4 8 Noroeste 22 Noroeste 0 -- -- 34
2017-08-16 15:00:00 30.6 9 Noroeste 30 Noroeste 0 -- -- 35
2017-08-16 14:00:00 30.1 6 Norte 16 Este 0 -- -- 33
2017-08-16 13:00:00 29.4 5 Nordeste 14 Este 0 -- -- 34
2017-08-16 12:00:00 27.8 6 Nordeste 16 Nordeste 0 -- -- 37
2017-08-16 11:00:00 26.2 3 Nordeste 9 Oeste 0 -- -- 43
2017-08-16 10:00:00 20.6 5 Oeste 9 Oeste 0 -- -- 52
2017-08-16 09:00:00 16 5 Oeste 9 Oeste 0 -- -- 59
2017-08-16 08:00:00 11.8 5 Oeste 6 Oeste 0 -- -- 65
2017-08-16 07:00:00 13.7 5 Noroeste 8 Noroeste 0 -- -- 61
2017-08-16 06:00:00 13.1 2 Noroeste 12 Oeste 0 -- -- 60
2017-08-16 05:00:00 13.9 6 Noroeste 10 Oeste 0 -- -- 58
2017-08-16 04:00:00 15.9 4 Noroeste 9 Noroeste 0 -- -- 53
2017-08-16 03:00:00 16.6 3 Oeste 7 Noroeste 0 -- -- 49
2017-08-16 02:00:00 18.1 3 Oeste 6 Noroeste 0 -- -- 45
2017-08-16 01:00:00 20 3 Noroeste 14 Nordeste 0 -- -- 42
2017-08-16 00:00:00 22.3 7 Noroeste 15 Noroeste 0 -- -- 40
2017-08-15 23:00:00 23.1 5 Noroeste 15 Noroeste 0 -- -- 40
2017-08-15 22:00:00 23.1 3 Nordeste 8 Norte 0 -- -- 41
2017-08-15 21:00:00 26.8 3 Norte 12 Noroeste 0 -- -- 38
2017-08-15 20:00:00 28.6 8 Oeste 18 Oeste 0 -- -- 37
2017-08-15 19:00:00 29.6 11 Oeste 26 Noroeste 0 -- -- 36
2017-08-15 18:00:00 30.3 15 Noroeste 26 Noroeste 0 -- -- 37
2017-08-15 17:00:00 30.6 10 Noroeste 31 Norte 0 -- -- 37
2017-08-15 16:00:00 30.7 12 Norte 26 Norte 0 -- -- 37
2017-08-15 15:00:00 30.4 10 Norte 32 Nordeste 0 -- -- 39
2017-08-15 14:00:00 29.8 14 Nordeste 31 Nordeste 0 -- -- 43
2017-08-15 13:00:00 28 10 Nordeste 18 Nordeste 0 -- -- 47
2017-08-15 12:00:00 27.2 5 Norte 11 Noroeste 0 -- -- 49
2017-08-15 11:00:00 24.9 4 Nordeste 9 Nordeste 0 -- -- 53
2017-08-15 10:00:00 22.8 0 Calma 7 Oeste 0 -- -- 58
2017-08-15 09:00:00 17.6 0 Calma 4 Nordeste 0 -- -- 72
2017-08-15 08:00:00 13.3 0 Calma 4 Noroeste 0 -- -- 78
2017-08-15 07:00:00 13.6 0 Calma 7 Noroeste 0 -- -- 74
2017-08-15 06:00:00 15 2 Oeste 7 Nordeste 0 -- -- 70
2017-08-15 05:00:00 15.8 3 Noroeste 9 Noroeste 0 -- -- 69
2017-08-15 04:00:00 14.7 3 Oeste 5 Noroeste 0 -- -- 66
2017-08-15 03:00:00 16.3 0 Calma 7 Oeste 0 -- -- 62
2017-08-15 02:00:00 17.9 0 Calma 6 Noroeste 0 -- -- 55
2017-08-15 01:00:00 18.7 5 Noroeste 10 Oeste 0 -- -- 52
2017-08-15 00:00:00 21 5 Oeste 14 Oeste 0 -- -- 45
2017-08-14 23:00:00 24.1 5 Norte 23 Norte 0 -- -- 41
2017-08-14 22:00:00 25.1 4 Nordeste 17 Noroeste 0 -- -- 39
2017-08-14 21:00:00 25.7 5 Nordeste 16 Noroeste 0 -- -- 37
2017-08-14 20:00:00 28.7 8 Noroeste 27 Noroeste 0 -- -- 35
2017-08-14 19:00:00 29.9 8 Nordeste 33 Norte 0 -- -- 34
2017-08-14 18:00:00 30.6 13 Norte 31 Norte 0 -- -- 34
2017-08-14 17:00:00 31 14 Norte 40 Nordeste 0 -- -- 35
2017-08-14 16:00:00 30.8 15 Norte 33 Noroeste 0 -- -- 37
2017-08-14 15:00:00 29.5 17 Nordeste 30 Norte 0 -- -- 38
2017-08-14 14:00:00 29.3 13 Nordeste 23 Nordeste 0 -- -- 42
2017-08-14 13:00:00 28.1 6 Nordeste 15 Este 0 -- -- 45
2017-08-14 12:00:00 25.9 4 Nordeste 11 Norte 0 -- -- 48
2017-08-14 11:00:00 24.5 2 Nordeste 7 Nordeste 0 -- -- 52
2017-08-14 10:00:00 20.3 2 Norte 8 Nordeste 0 -- -- 60
2017-08-14 09:00:00 15.5 3 Noroeste 7 Oeste 0 -- -- 69
2017-08-14 08:00:00 12.2 4 Oeste 9 Oeste 0 -- -- 76
2017-08-14 07:00:00 11.4 2 Noroeste 6 Noroeste 0 -- -- 72
2017-08-14 06:00:00 12.4 0 Calma 6 Oeste 0 -- -- 71
2017-08-14 05:00:00 13 0 Calma 8 Oeste 0 -- -- 65
2017-08-14 04:00:00 13.5 4 Oeste 7 Noroeste 0 -- -- 62
2017-08-14 03:00:00 15 0 Calma 14 Noroeste 0 -- -- 58
2017-08-14 02:00:00 13.8 2 Nordeste 20 Nordeste 0 -- -- 61
2017-08-14 01:00:00 14.6 4 Noroeste 6 Oeste 0 -- -- 56
2017-08-14 00:00:00 15.9 2 Noroeste 6 Oeste 0 -- -- 51
2017-08-13 23:00:00 18.2 0 Calma 6 Norte 0 -- -- 45
2017-08-13 22:00:00 23 2 Nordeste 10 Noroeste 0 -- -- 37
2017-08-13 21:00:00 26.3 3 Norte 18 Nordeste 0 -- -- 33
2017-08-13 20:00:00 28.7 9 Nordeste 21 Nordeste 0 -- -- 32
2017-08-13 19:00:00 29.5 9 Nordeste 21 Nordeste 0 -- -- 31
2017-08-13 18:00:00 30.2 9 Norte 22 Norte 0 -- -- 32
2017-08-13 17:00:00 28.9 7 Norte 27 Norte 0 -- -- 33
2017-08-13 16:00:00 29.6 10 Nordeste 26 Norte 0 -- -- 33
2017-08-13 15:00:00 29.5 8 Norte 25 Nordeste 0 -- -- 34
2017-08-13 14:00:00 29.2 8 Norte 22 Nordeste 0 -- -- 34
2017-08-13 13:00:00 28 6 Nordeste 17 Norte 0 -- -- 36
2017-08-13 12:00:00 26.2 3 Nordeste 12 Este 0 -- -- 37
2017-08-13 11:00:00 24.1 2 Norte 6 Nordeste 0 -- -- 39
2017-08-13 10:00:00 20.6 0 Calma 5 Nordeste 0 -- -- 46
2017-08-13 09:00:00 15.2 2 Norte 5 Oeste 0 -- -- 54
2017-08-13 08:00:00 9.6 0 Calma 9 Oeste 0 -- -- 63
2017-08-13 07:00:00 8.7 3 Noroeste 8 Oeste 0 -- -- 62
2017-08-13 06:00:00 9.1 3 Noroeste 6 Noroeste 0 -- -- 59
2017-08-13 05:00:00 11.3 2 Nordeste 9 Oeste 0 -- -- 55
2017-08-13 04:00:00 11.9 3 Noroeste 12 Oeste 0 -- -- 52
2017-08-13 03:00:00 13.6 0 Calma 10 Oeste 0 -- -- 47
2017-08-13 02:00:00 14.1 6 Oeste 12 Oeste 0 -- -- 46
2017-08-13 01:00:00 14.9 5 Oeste 9 Oeste 0 -- -- 43
2017-08-13 00:00:00 16.3 5 Oeste 9 Oeste 0 -- -- 40
2017-08-12 23:00:00 17.6 0 Calma 10 Noroeste 0 -- -- 36
2017-08-12 22:00:00 18.8 2 Noroeste 8 Noroeste 0 -- -- 32
2017-08-12 21:00:00 25.5 4 Noroeste 18 Noroeste 0 -- -- 25
2017-08-12 20:00:00 29.6 6 Noroeste 15 Noroeste 0 -- -- 22
2017-08-12 19:00:00 30.2 5 Noroeste 21 Oeste 0 -- -- 22
2017-08-12 18:00:00 30.4 4 Noroeste 28 Oeste 0 -- -- 22
2017-08-12 17:00:00 29.7 11 Noroeste 20 Noroeste 0 -- -- 22
2017-08-12 16:00:00 29.3 5 Nordeste 17 Nordeste 0 -- -- 26
2017-08-12 15:00:00 28.5 6 Nordeste 17 Nordeste 0 -- -- 28
2017-08-12 14:00:00 27.3 5 Norte 15 Nordeste 0 -- -- 29
2017-08-12 13:00:00 25.8 4 Nordeste 14 Nordeste 0 -- -- 30
2017-08-12 12:00:00 24.3 4 Noroeste 13 Norte 0 -- -- 33
2017-08-12 11:00:00 22.3 5 Norte 9 Norte 0 -- -- 37
2017-08-12 10:00:00 18.5 3 Norte 8 Norte 0 -- -- 46
2017-08-12 09:00:00 13.5 2 Nordeste 10 Nordeste 0 -- -- 58
2017-08-12 08:00:00 6.9 0 Calma 9 Noroeste 0 -- -- 67
2017-08-12 07:00:00 6.8 0 Calma 8 Noroeste 0 -- -- 66
2017-08-12 06:00:00 7 3 Oeste 8 Noroeste 0 -- -- 65
2017-08-12 05:00:00 7.9 0 Calma 6 Noroeste 0 -- -- 60
2017-08-12 04:00:00 9.7 3 Noroeste 9 Noroeste 0 -- -- 55
2017-08-12 03:00:00 10.4 4 Oeste 10 Noroeste 0 -- -- 52
2017-08-12 02:00:00 12.2 8 Oeste 12 Oeste 0 -- -- 49
2017-08-12 01:00:00 14.2 0 Calma 13 Oeste 0 -- -- 42
2017-08-12 00:00:00 17.4 3 Noroeste 22 Noroeste 0 -- -- 38
2017-08-11 23:00:00 18.4 8 Noroeste 18 Noroeste 0 -- -- 36
2017-08-11 22:00:00 19.7 10 Noroeste 24 Norte 0 -- -- 31
2017-08-11 21:00:00 22.1 9 Noroeste 19 Noroeste 0 -- -- 27
2017-08-11 20:00:00 24.5 10 Norte 22 Norte 0 -- -- 26
2017-08-11 19:00:00 25.3 10 Noroeste 26 Noroeste 0 -- -- 25
2017-08-11 18:00:00 26.3 10 Noroeste 23 Noroeste 0 -- -- 25
2017-08-11 17:00:00 25.8 12 Noroeste 27 Norte 0 -- -- 24
2017-08-11 16:00:00 25.1 14 Noroeste 27 Noroeste 0 -- -- 26
2017-08-11 15:00:00 24.5 12 Noroeste 30 Noroeste 0 -- -- 27
2017-08-11 14:00:00 23.7 12 Noroeste 31 Norte 0 -- -- 27
2017-08-11 13:00:00 22.5 14 Norte 30 Norte 0 -- -- 30
2017-08-11 12:00:00 22 9 Norte 27 Nordeste 0 -- -- 29
2017-08-11 11:00:00 18.7 4 Noroeste 11 Noroeste 0 -- -- 42
2017-08-11 10:00:00 12.3 4 Noroeste 12 Noroeste 0 -- -- 65
2017-08-11 09:00:00 8.3 0 Calma 9 Noroeste 0 -- -- 75
2017-08-11 08:00:00 6.4 3 Noroeste 7 Noroeste 0 -- -- 74
2017-08-11 07:00:00 7.8 4 Noroeste 10 Oeste 0 -- -- 70
2017-08-11 06:00:00 7.8 6 Oeste 10 Oeste 0 -- -- 70
2017-08-11 05:00:00 8.3 3 Nordeste 9 Noroeste 0 -- -- 70
2017-08-11 04:00:00 8.7 4 Noroeste 11 Noroeste 0 -- -- 68
2017-08-11 03:00:00 9.5 4 Noroeste 15 Oeste 0 -- -- 64
2017-08-11 02:00:00 10.7 0 Calma 12 Oeste 0 -- -- 60
2017-08-11 01:00:00 13.4 5 Noroeste 22 Oeste 0 -- -- 52
2017-08-11 00:00:00 14.4 2 Norte 30 Noroeste 0 -- -- 51
2017-08-10 23:00:00 15.7 15 Noroeste 26 Norte 0 -- -- 48
2017-08-10 22:00:00 17.1 10 Norte 26 Noroeste 0 -- -- 45
2017-08-10 21:00:00 19.4 11 Norte 23 Norte 0 -- -- 41
2017-08-10 20:00:00 21.9 10 Noroeste 24 Norte 0 -- -- 37
2017-08-10 19:00:00 22.9 10 Noroeste 26 Noroeste 0 -- -- 37
2017-08-10 18:00:00 22.8 13 Noroeste 29 Noroeste 0 -- -- 38
2017-08-10 17:00:00 22.5 12 Noroeste 26 Oeste 0 -- -- 37
2017-08-10 16:00:00 22 9 Norte 27 Noroeste 0 -- -- 39
2017-08-10 15:00:00 20.9 12 Noroeste 24 Oeste 0 -- -- 42
2017-08-10 14:00:00 20.6 8 Norte 19 Norte 0 -- -- 42
2017-08-10 13:00:00 19.1 4 Noroeste 17 Nordeste 0 -- -- 44
2017-08-10 12:00:00 17.7 5 Noroeste 24 Noroeste 0 -- -- 47
2017-08-10 11:00:00 15.3 5 Noroeste 26 Noroeste 0 -- -- 48
2017-08-10 10:00:00 13.7 9 Norte 23 Norte 0 -- -- 58
2017-08-10 09:00:00 11.3 6 Nordeste 22 Noroeste 0 -- -- 65
2017-08-10 08:00:00 8 12 Noroeste 22 Noroeste 0 -- -- 74
2017-08-10 07:00:00 3.7 4 Oeste 14 Oeste 0 -- -- 82
2017-08-10 06:00:00 6 3 Noroeste 10 Oeste 0 -- -- 72
2017-08-10 05:00:00 7.9 0 Calma 23 Noroeste 0 -- -- 66
2017-08-10 04:00:00 8.8 7 Norte 28 Noroeste 0 -- -- 66
2017-08-10 03:00:00 9.1 12 Noroeste 24 Noroeste 0 -- -- 65
2017-08-10 02:00:00 9.6 11 Noroeste 35 Norte 0 -- -- 63
2017-08-10 01:00:00 10.4 13 Noroeste 39 Noroeste 0 -- -- 61
2017-08-10 00:00:00 11.5 11 Noroeste 35 Noroeste 0 -- -- 57
2017-08-09 23:00:00 13 13 Norte 27 Norte 0 -- -- 49
2017-08-09 22:00:00 14.6 10 Norte 29 Norte 0 -- -- 45
2017-08-09 21:00:00 16.5 14 Norte 36 Norte 0 -- -- 42
2017-08-09 20:00:00 18.4 15 Noroeste 40 Norte 0 -- -- 41
2017-08-09 19:00:00 20 16 Noroeste 45 Noroeste 0 -- -- 40
2017-08-09 18:00:00 21.1 19 Noroeste 47 Norte 0 -- -- 41
2017-08-09 17:00:00 22 20 Noroeste 40 Noroeste 0 -- -- 41
2017-08-09 16:00:00 22.8 18 Noroeste 36 Noroeste 0 -- -- 41
2017-08-09 15:00:00 22.2 20 Noroeste 36 Noroeste 0 -- -- 43
2017-08-09 14:00:00 21.5 17 Noroeste 39 Noroeste 0 -- -- 46
2017-08-09 13:00:00 21.8 12 Noroeste 26 Norte 0 -- -- 43
2017-08-09 12:00:00 21.2 10 Norte 23 Noroeste 0 -- -- 42
2017-08-09 11:00:00 21.6 3 Norte 9 Oeste 0 -- -- 41
2017-08-09 10:00:00 17.6 3 Noroeste 8 Oeste 0 -- -- 51
2017-08-09 09:00:00 13.7 0 Calma 9 Noroeste 0 -- -- 63
2017-08-09 08:00:00 8 0 Calma 11 Noroeste 0 -- -- 76
2017-08-09 07:00:00 6.8 4 Oeste 9 Oeste 0 -- -- 76
2017-08-09 06:00:00 7.9 3 Oeste 6 Oeste 0 -- -- 73
2017-08-09 05:00:00 9.1 2 Noroeste 7 Oeste 0 -- -- 67
2017-08-09 04:00:00 11.5 5 Oeste 12 Oeste 0 -- -- 62
2017-08-09 03:00:00 10.6 3 Noroeste 7 Norte 0 -- -- 62
2017-08-09 02:00:00 11.8 5 Noroeste 8 Noroeste 0 -- -- 57
2017-08-09 01:00:00 12 4 Noroeste 6 Noroeste 0 -- -- 55
2017-08-09 00:00:00 13.5 3 Noroeste 9 Norte 0 -- -- 50
2017-08-08 23:00:00 16.1 4 Noroeste 8 Noroeste 0 -- -- 45
2017-08-08 22:00:00 18.3 2 Norte 19 Norte 0 -- -- 40
2017-08-08 21:00:00 21.3 6 Norte 18 Norte 0 -- -- 36
2017-08-08 20:00:00 23.4 8 Norte 21 Noroeste 0 -- -- 34
2017-08-08 19:00:00 23.8 11 Noroeste 28 Noroeste 0 -- -- 34
2017-08-08 18:00:00 24.8 10 Noroeste 26 Noroeste 0 -- -- 34
2017-08-08 17:00:00 23.9 13 Noroeste 35 Oeste 0 -- -- 35
2017-08-08 16:00:00 23.1 14 Noroeste 30 Noroeste 0 -- -- 38
2017-08-08 15:00:00 22.3 12 Norte 31 Noroeste 0 -- -- 42
2017-08-08 14:00:00 20.6 14 Noroeste 35 Noroeste 0 -- -- 48
2017-08-08 13:00:00 19.7 15 Noroeste 32 Oeste 0 -- -- 53
2017-08-08 12:00:00 18 17 Noroeste 31 Noroeste 0 -- -- 61
2017-08-08 11:00:00 16.5 17 Noroeste 34 Noroeste 0 -- -- 66
2017-08-08 10:00:00 16.6 14 Noroeste 27 Noroeste 0 -- -- 69
2017-08-08 09:00:00 15.5 10 Noroeste 24 Noroeste 0 -- -- 73
2017-08-08 08:00:00 14.3 6 Nordeste 15 Norte 0 -- -- 77
2017-08-08 07:00:00 14.3 7 Noroeste 26 Norte 0 -- -- 77
2017-08-08 06:00:00 14.2 9 Norte 35 Noroeste 0 -- -- 70
2017-08-08 05:00:00 16 17 Noroeste 34 Noroeste 0 -- -- 61
2017-08-08 04:00:00 17 5 Norte 37 Oeste 0 -- -- 55
2017-08-08 03:00:00 18 12 Noroeste 30 Oeste 0 -- -- 52
2017-08-08 02:00:00 19 11 Oeste 28 Noroeste 0 -- -- 43
2017-08-08 01:00:00 21.3 10 Oeste 28 Oeste 0 -- -- 31
2017-08-08 00:00:00 22.5 10 Oeste 21 Oeste 0 -- -- 27
2017-08-07 23:00:00 22.6 7 Oeste 12 Oeste 0 -- -- 27
2017-08-07 22:00:00 24.5 6 Oeste 17 Oeste 0 -- -- 26
2017-08-07 21:00:00 26.7 12 Noroeste 25 Noroeste 0 -- -- 25
2017-08-07 20:00:00 28.5 11 Noroeste 23 Oeste 0 -- -- 25
2017-08-07 19:00:00 31 11 Oeste 29 Oeste 0 -- -- 21
2017-08-07 18:00:00 32.2 14 Norte 30 Nordeste 0 -- -- 21
2017-08-07 17:00:00 31.6 12 Norte 32 Norte 0 -- -- 22
2017-08-07 16:00:00 31 15 Norte 32 Nordeste 0 -- -- 26
2017-08-07 15:00:00 30.1 14 Nordeste 34 Nordeste 0 -- -- 31
2017-08-07 14:00:00 28.8 14 Nordeste 28 Este 0 -- -- 40
2017-08-07 13:00:00 26.8 9 Nordeste 22 Nordeste 0 -- -- 49
2017-08-07 12:00:00 26.1 5 Norte 18 Norte 0 -- -- 56
2017-08-07 11:00:00 23.6 6 Nordeste 14 Este 0 -- -- 63
2017-08-07 10:00:00 22.5 2 Noroeste 5 Nordeste 0 -- -- 63
2017-08-07 09:00:00 17.9 3 Oeste 9 Oeste 0 -- -- 73
2017-08-07 08:00:00 14 4 Oeste 7 Oeste 0 -- -- 83
2017-08-07 07:00:00 13.1 0 Calma 5 Noroeste 0 -- -- 80
2017-08-07 06:00:00 14 3 Noroeste 6 Oeste 0 -- -- 79
2017-08-07 05:00:00 14.4 0 Calma 6 Noroeste 0 -- -- 75
2017-08-07 04:00:00 14.6 0 Calma 5 Noroeste 0 -- -- 72
2017-08-07 03:00:00 16 0 Calma 8 Noroeste 0 -- -- 67
2017-08-07 02:00:00 18.3 6 Noroeste 9 Noroeste 0 -- -- 61
2017-08-07 01:00:00 19 0 Calma 8 Noroeste 0 -- -- 56
2017-08-07 00:00:00 20.3 0 Calma 11 Nordeste 0 -- -- 52
2017-08-06 23:00:00 22.9 4 Noroeste 12 Oeste 0 -- -- 47
2017-08-06 22:00:00 26.4 5 Oeste 17 Norte 0 -- -- 37
2017-08-06 21:00:00 29.6 7 Norte 17 Norte 0 -- -- 31
2017-08-06 20:00:00 31.3 8 Norte 19 Nordeste 0 -- -- 30
2017-08-06 19:00:00 32.2 8 Nordeste 26 Nordeste 0 -- -- 28
2017-08-06 18:00:00 33 4 Norte 23 Nordeste 0 -- -- 28
2017-08-06 17:00:00 32.2 6 Norte 23 Norte 0 -- -- 31
2017-08-06 16:00:00 31.6 10 Nordeste 26 Nordeste 0 -- -- 33
2017-08-06 15:00:00 30.1 10 Norte 28 Nordeste 0 -- -- 41
2017-08-06 14:00:00 28.8 13 Nordeste 24 Norte 0 -- -- 46
2017-08-06 13:00:00 28 10 Norte 20 Nordeste 0 -- -- 48
2017-08-06 12:00:00 27.2 7 Norte 17 Nordeste 0 -- -- 50
2017-08-06 11:00:00 26.1 3 Norte 9 Norte 0 -- -- 52
2017-08-06 10:00:00 24.2 3 Nordeste 7 Norte 0 -- -- 56
2017-08-06 09:00:00 20.2 0 Calma 7 Oeste 0 -- -- 72
2017-08-06 08:00:00 15.3 4 Oeste 7 Oeste 0 -- -- 85
2017-08-06 07:00:00 14.1 0 Calma 5 Oeste 0 -- -- 85
2017-08-06 06:00:00 14.8 3 Oeste 6 Noroeste 0 -- -- 81
2017-08-06 05:00:00 15.8 3 Noroeste 5 Noroeste 0 -- -- 76
2017-08-06 04:00:00 17.1 0 Calma 6 Oeste 0 -- -- 72
2017-08-06 03:00:00 17.6 4 Noroeste 7 Oeste 0 -- -- 70
2017-08-06 02:00:00 19 4 Oeste 8 Noroeste 0 -- -- 66
2017-08-06 01:00:00 20.4 4 Norte 7 Noroeste 0 -- -- 60
2017-08-06 00:00:00 22.7 3 Norte 13 Noroeste 0 -- -- 53
2017-08-05 23:00:00 23.8 3 Noroeste 12 Oeste 0 -- -- 49
2017-08-05 22:00:00 26.8 6 Noroeste 23 Noroeste 0 -- -- 44
2017-08-05 21:00:00 29.8 9 Norte 22 Noroeste 0 -- -- 40
2017-08-05 20:00:00 32.6 12 Noroeste 25 Noroeste 0 -- -- 35
2017-08-05 19:00:00 32.3 14 Noroeste 28 Noroeste 0 -- -- 35
2017-08-05 18:00:00 32.6 11 Noroeste 22 Oeste 0 -- -- 35
2017-08-05 17:00:00 33.2 12 Noroeste 26 Noroeste 0 -- -- 34
2017-08-05 16:00:00 33.8 7 Noroeste 23 Oeste 0 -- -- 34
2017-08-05 15:00:00 34.3 9 Noroeste 22 Norte 0 -- -- 34
2017-08-05 14:00:00 32.8 10 Oeste 24 Noroeste 0 -- -- 35
2017-08-05 13:00:00 33.6 7 Nordeste 24 Nordeste 0 -- -- 36
2017-08-05 12:00:00 31.8 10 Nordeste 20 Norte 0 -- -- 36
2017-08-05 11:00:00 30.7 2 Nordeste 9 Oeste 0 -- -- 39
2017-08-05 10:00:00 25.7 4 Noroeste 10 Oeste 0 -- -- 49
2017-08-05 09:00:00 21.5 6 Oeste 10 Oeste 0 -- -- 55
2017-08-05 08:00:00 17.7 4 Noroeste 6 Oeste 0 -- -- 65
2017-08-05 07:00:00 17.2 0 Calma 9 Oeste 0 -- -- 64
2017-08-05 06:00:00 17.8 4 Oeste 7 Oeste 0 -- -- 60
2017-08-05 05:00:00 19.6 2 Noroeste 9 Noroeste 0 -- -- 55
2017-08-05 04:00:00 22.2 0 Calma 12 Noroeste 0 -- -- 51
2017-08-05 03:00:00 22.4 6 Oeste 13 Oeste 0 -- -- 52
2017-08-05 02:00:00 22.8 5 Oeste 15 Noroeste 0 -- -- 51
2017-08-05 01:00:00 21.6 3 Noroeste 9 Oeste 0 -- -- 53
2017-08-05 00:00:00 22.3 2 Noroeste 10 Nordeste 0 -- -- 51
2017-08-04 23:00:00 23.8 2 Nordeste 7 Este 0 -- -- 49
2017-08-04 22:00:00 25.9 2 Noroeste 8 Noroeste 0 -- -- 45
2017-08-04 21:00:00 31.1 3 Noroeste 15 Noroeste 0 -- -- 38
2017-08-04 20:00:00 32.3 7 Noroeste 17 Noroeste 0 -- -- 37
2017-08-04 19:00:00 33.3 7 Noroeste 21 Noroeste 0 -- -- 36
2017-08-04 18:00:00 33.7 8 Noroeste 24 Noroeste 0 -- -- 37
2017-08-04 17:00:00 34 10 Noroeste 26 Norte 0 -- -- 38
2017-08-04 16:00:00 33.4 8 Noroeste 22 Noroeste 0 -- -- 39
2017-08-04 15:00:00 32.9 6 Nordeste 21 Nordeste 0 -- -- 41
2017-08-04 14:00:00 32.4 6 Norte 17 Norte 0 -- -- 41
2017-08-04 13:00:00 30.3 9 Nordeste 20 Nordeste 0 -- -- 44
2017-08-04 12:00:00 29.5 9 Nordeste 23 Norte 0 -- -- 46
2017-08-04 11:00:00 28.7 3 Noroeste 9 Oeste 0 900.2 1.4 48
2017-08-04 10:00:00 25.1 4 Noroeste 10 Oeste 0 899.9 0.7 57
2017-08-04 09:00:00 22.2 3 Noroeste 13 Noroeste 0 899.6 0.7 64
2017-08-04 08:00:00 19.7 2 Noroeste 14 Norte 0 898.8 0.1 65
2017-08-04 07:00:00 21.6 6 Noroeste 17 Noroeste 0 899.2 0.1 59
2017-08-04 06:00:00 21.5 4 Noroeste 17 Noroeste 0 898.9 -0.3 58
2017-08-04 05:00:00 22.9 7 Noroeste 22 Oeste 0 898.7 -0.8 55
2017-08-04 04:00:00 22.8 9 Noroeste 18 Norte 0 899.1 -0.6 55
2017-08-04 03:00:00 23.8 8 Noroeste 24 Oeste 0 899.2 -0.5 52
2017-08-04 02:00:00 24.2 7 Oeste 18 Oeste 0 899.5 -0.2 52
2017-08-04 01:00:00 23.1 5 Norte 13 Oeste 0 899.7 0.6 49
2017-08-04 00:00:00 26.2 10 Noroeste 22 Oeste 0 899.7 1.4 45
2017-08-03 23:00:00 22.7 3 Norte 7 Norte 0 899.7 1.7 42
2017-08-03 22:00:00 26.7 2 Nordeste 22 Noroeste 0 899.1 1.3 35
2017-08-03 21:00:00 29.7 11 Noroeste 24 Noroeste 0 898.3 0.3 30
2017-08-03 20:00:00 31.9 12 Noroeste 26 Oeste 0 898 -0.3 29
2017-08-03 19:00:00 33.1 13 Noroeste 28 Oeste 0 897.8 -1 27
2017-08-03 18:00:00 34.1 4 Noroeste 18 Norte 0 898 -1.2 29
2017-08-03 17:00:00 33.5 6 Norte 19 Oeste 0 898.3 -1.5 29
2017-08-03 16:00:00 33.1 6 Nordeste 18 Nordeste 0 898.8 -1.4 30
2017-08-03 15:00:00 32.2 8 Norte 22 Norte 0 899.2 -1.2 30
2017-08-03 14:00:00 31.1 5 Nordeste 24 Norte 0 899.8 -0.8 31
2017-08-03 13:00:00 30.1 10 Nordeste 20 Nordeste 0 900.2 -0.1 32
2017-08-03 12:00:00 29 9 Nordeste 17 Nordeste 0 900.4 -0.8 32
2017-08-03 11:00:00 27.3 4 Nordeste 9 Norte 0 900.6 1 36
2017-08-03 10:00:00 22.2 3 Noroeste 6 Oeste 0 900.3 2.1 48
2017-08-03 09:00:00 17.9 5 Oeste 11 Noroeste 0 901.2 1 53
2017-08-03 08:00:00 15.3 8 Oeste 13 Oeste 0 899.6 1 57
2017-08-03 07:00:00 11.7 3 Noroeste 7 Noroeste 0 898.2 -0.8 65
2017-08-03 06:00:00 12.5 4 Noroeste 10 Oeste 0 900.2 0.5 65
2017-08-03 05:00:00 13.1 2 Noroeste 12 Oeste 0 898.6 -1.6 63
2017-08-03 04:00:00 13.4 2 Nordeste 8 Noroeste 0 899 -2.4 61
2017-08-03 03:00:00 14.2 2 Noroeste 7 Noroeste 0 899.7 0 61
2017-08-03 02:00:00 15.3 4 Noroeste 6 Noroeste 0 900.2 0.4 59
2017-08-03 01:00:00 16.5 0 Calma 6 Noroeste 0 901.4 1.9 57
2017-08-03 00:00:00 17.6 0 Calma 8 Noroeste 0 899.7 1 51
2017-08-02 23:00:00 19.7 4 Noroeste 7 Oeste 0 899.8 1.8 46
2017-08-02 22:00:00 23.8 5 Noroeste 10 Noroeste 0 899.5 1.7 41
2017-08-02 21:00:00 27.8 3 Nordeste 17 Norte 0 898.7 0.8 34
2017-08-02 20:00:00 28.7 8 Nordeste 21 Norte 0 898 0.2 33
2017-08-02 19:00:00 30 10 Nordeste 24 Noroeste 0 897.8 -0.5 33
2017-08-02 18:00:00 30.5 8 Nordeste 23 Nordeste 0 897.9 -0.8 32
2017-08-02 17:00:00 30.9 11 Nordeste 24 Este 0 897.8 -1.1 33
2017-08-02 16:00:00 30.6 11 Norte 24 Este 0 898.3 -1.1 33
2017-08-02 15:00:00 28.9 5 Nordeste 20 Nordeste 0 898.7 -1.3 37
2017-08-02 14:00:00 29.1 8 Nordeste 20 Norte 0 898.9 -1 38
2017-08-02 13:00:00 28.5 5 Nordeste 15 Noroeste 0 899.4 -0.4 44
2017-08-02 12:00:00 26.8 6 Nordeste 15 Nordeste 0 900 -0.8 45
2017-08-02 11:00:00 25.1 5 Norte 10 Norte 0 899.9 2.2 52
2017-08-02 10:00:00 22.2 2 Nordeste 6 Nordeste 0 899.8 3 49
2017-08-02 09:00:00 19 0 Calma 8 Noroeste 0 900.8 1.6 58
2017-08-02 08:00:00 13.2 6 Noroeste 12 Oeste 0 897.7 0.2 69
2017-08-02 07:00:00 12 3 Noroeste 11 Oeste 0 896.8 -1.8 69
2017-08-02 06:00:00 13.3 7 Oeste 10 Oeste 0 899.2 0.3 68
2017-08-02 05:00:00 12.5 0 Calma 12 Noroeste 0 897.5 -1.9 68
2017-08-02 04:00:00 13.4 3 Nordeste 8 Oeste 0 898.6 0.1 65
2017-08-02 03:00:00 15.1 3 Oeste 9 Oeste 0 898.9 -0.6 59
2017-08-02 02:00:00 15.6 3 Noroeste 8 Noroeste 0 899.4 1.5 57
2017-08-02 01:00:00 15.4 3 Noroeste 7 Noroeste 0 898.5 0.8 57
2017-08-02 00:00:00 16.5 0 Calma 7 Oeste 0 899.5 2.6 52
2017-08-01 23:00:00 17.8 2 Noroeste 5 Oeste 0 897.9 1.7 46
2017-08-01 22:00:00 21.8 6 Noroeste 14 Noroeste 0 897.7 2 38
2017-08-01 21:00:00 26.1 5 Norte 20 Noroeste 0 896.9 1.1 33
2017-08-01 20:00:00 27.8 11 Norte 26 Norte 0 896.2 0.7 31
2017-08-01 19:00:00 28.4 11 Norte 31 Nordeste 0 895.7 -0.1 31
2017-08-01 18:00:00 28.3 12 Norte 33 Norte 0 895.8 0.3 31
2017-08-01 17:00:00 28.3 14 Nordeste 35 Nordeste 0 895.5 0 31
2017-08-01 16:00:00 28.6 13 Norte 32 Nordeste 0 895.8 0.1 31
2017-08-01 15:00:00 27.7 15 Nordeste 29 Noroeste 0 895.5 -0.5 31
2017-08-01 14:00:00 27.5 11 Norte 33 Noroeste 0 895.5 -0.2 33
2017-08-01 13:00:00 26.1 9 Norte 22 Nordeste 0 895.7 1.3 37
2017-08-01 12:00:00 24.1 9 Nordeste 15 Nordeste 0 896 1.6 42
2017-08-01 11:00:00 22.8 4 Norte 9 Norte 0 895.7 2.6 45
2017-08-01 10:00:00 19.7 0 Calma 6 Norte 0 894.4 1.1 55
2017-08-01 09:00:00 16.2 0 Calma 4 Este 0 894.4 1.3 66
2017-08-01 08:00:00 14.9 0 Calma 8 Oeste 0 893.1 -0.4 69
2017-08-01 07:00:00 14.9 0 Calma 6 Oeste 0 893.3 0.4 65
2017-08-01 06:00:00 15.1 2 Oeste 7 Noroeste 0 893.1 0.5 62
2017-08-01 05:00:00 16.7 5 Noroeste 10 Noroeste 0 893.5 0.7 59
2017-08-01 04:00:00 17.4 2 Noroeste 6 Noroeste 0 892.9 0 55
2017-08-01 03:00:00 17.5 3 Noroeste 8 Oeste 0 892.6 -0.8 52
2017-08-01 02:00:00 19.4 0 Calma 11 Norte 0 892.8 -0.3 48
2017-08-01 01:00:00 20 5 Norte 19 Nordeste 0 892.9 0.5 48
2017-08-01 00:00:00 21.1 8 Noroeste 28 Oeste 0 893.4 1.3 44
2017-07-31 23:00:00 20.2 4 Norte 18 Noroeste 0 893.1 2 41
2017-07-31 22:00:00 22.9 5 Norte 20 Norte 0 892.4 1.3 36
2017-07-31 21:00:00 25.9 9 Noroeste 22 Norte 0 892.1 0.8 30
2017-07-31 20:00:00 27.6 11 Norte 30 Norte 0 891.1 -0.4 25
2017-07-31 19:00:00 29.4 14 Norte 30 Norte 0 891.1 -0.5 25
2017-07-31 18:00:00 30.1 13 Norte 40 Norte 0 891.3 -0.6 25
2017-07-31 17:00:00 30.6 14 Norte 44 Nordeste 0 891.5 -0.6 25
2017-07-31 16:00:00 29.9 19 Norte 42 Norte 0 891.6 -1 25
2017-07-31 15:00:00 29.4 21 Norte 40 Norte 0 891.9 -0.5 26
2017-07-31 14:00:00 29.1 20 Norte 41 Noroeste 0 892.1 -0.2 29
2017-07-31 13:00:00 28.6 17 Noroeste 35 Noroeste 0 892.6 0.1 34
2017-07-31 12:00:00 27.6 12 Norte 23 Nordeste 0 892.4 -0.1 38
2017-07-31 11:00:00 25.5 12 Nordeste 22 Nordeste 0 892.3 2.2 41
2017-07-31 10:00:00 23.4 4 Nordeste 9 Nordeste 0 892.5 2.7 45
2017-07-31 09:00:00 17.9 2 Oeste 6 Noroeste 0 892.5 2.9 59
2017-07-31 08:00:00 13.2 0 Calma 5 Noroeste 0 890.1 -0.1 70
2017-07-31 07:00:00 13.1 5 Oeste 8 Oeste 0 889.8 -1.5 69
2017-07-31 06:00:00 12.5 4 Oeste 6 Oeste 0 889.6 -2.7 69
2017-07-31 05:00:00 12.7 4 Noroeste 5 Noroeste 0 890.2 -3 64
2017-07-31 04:00:00 14.4 3 Noroeste 7 Noroeste 0 891.3 -1.3 60
2017-07-31 03:00:00 15.5 3 Noroeste 8 Noroeste 0 892.3 -1.3 58
2017-07-31 02:00:00 16.7 5 Noroeste 9 Oeste 0 893.2 -0.5 54
2017-07-31 01:00:00 17.9 5 Noroeste 9 Noroeste 0 892.6 -0.9 51
2017-07-31 00:00:00 19.9 3 Noroeste 9 Oeste 0 893.6 0.5 46
2017-07-30 23:00:00 21.2 2 Norte 7 Noroeste 0 893.7 0.7 45
2017-07-30 22:00:00 22.6 3 Noroeste 7 Noroeste 0 893.5 0.6 42
2017-07-30 21:00:00 28.8 4 Noroeste 12 Noroeste 0 893.1 0 33
2017-07-30 20:00:00 31.2 10 Oeste 19 Oeste 0 893 -0.4 30
2017-07-30 19:00:00 32.2 10 Oeste 18 Oeste 0 892.9 -1 30
2017-07-30 18:00:00 32.9 11 Noroeste 23 Oeste 0 893.1 -1.3 30
2017-07-30 17:00:00 32.6 4 Noroeste 29 Noroeste 0 893.4 -1.1 30
2017-07-30 16:00:00 32.4 8 Noroeste 24 Norte 0 893.9 -1.3 32
2017-07-30 15:00:00 32.4 15 Norte 35 Norte 0 894.4 -1.3 31
2017-07-30 14:00:00 31.9 14 Norte 32 Noroeste 0 894.5 -1.3 34
2017-07-30 13:00:00 30.2 9 Nordeste 26 Nordeste 0 895.2 -1.2 36
2017-07-30 12:00:00 29 7 Nordeste 16 Nordeste 0 895.7 0.1 38
2017-07-30 11:00:00 27.7 3 Norte 9 Nordeste 0 895.8 -0.1 41
2017-07-30 10:00:00 24.5 0 Calma 5 Norte 0 896.4 0.6 49
2017-07-30 09:00:00 19.8 0 Calma 8 Noroeste 0 895.6 -0.3 59
2017-07-30 08:00:00 15.8 6 Oeste 9 Oeste 0 895.9 -1.3 65
2017-07-30 07:00:00 15.1 4 Noroeste 12 Oeste 0 895.8 -0.8 62
2017-07-30 06:00:00 15.1 4 Noroeste 8 Oeste 0 895.9 -0.9 60
2017-07-30 05:00:00 16.3 0 Calma 11 Noroeste 0 897.2 -0.2 55
2017-07-30 04:00:00 17.3 3 Norte 8 Norte 0 896.6 -1.2 50
2017-07-30 03:00:00 19.9 4 Norte 12 Oeste 0 896.8 -0.6 45
2017-07-30 02:00:00 20.6 4 Nordeste 12 Oeste 0 897.4 -0.4 43
2017-07-30 01:00:00 24.3 6 Noroeste 19 Noroeste 0 897.8 0.3 37
2017-07-30 00:00:00 20 0 Calma 9 Norte 0 897.4 0.2 44
2017-07-29 23:00:00 21.2 3 Norte 8 Norte 0 897.8 0.6 40
2017-07-29 22:00:00 24.9 6 Noroeste 13 Noroeste 0 897.5 0.5 35
2017-07-29 21:00:00 29.1 5 Oeste 17 Oeste 0 897.2 0.2 30
2017-07-29 20:00:00 31.4 9 Oeste 22 Oeste 0 897.2 -0.1 28
2017-07-29 19:00:00 32 12 Noroeste 31 Noroeste 0 897 -0.6 27
2017-07-29 18:00:00 31.3 13 Oeste 25 Noroeste 0 897 -0.6 28
2017-07-29 17:00:00 32.4 9 Noroeste 31 Oeste 0 897.3 -0.5 29
2017-07-29 16:00:00 31.7 12 Noroeste 33 Noroeste 0 897.6 -0.6 30
2017-07-29 15:00:00 31.7 15 Noroeste 29 Oeste 0 897.6 -0.7 30
2017-07-29 14:00:00 31.8 7 Noroeste 20 Nordeste 0 897.8 -0.6 31
2017-07-29 13:00:00 30.5 5 Nordeste 19 Nordeste 0 898.2 -0.4 36
2017-07-29 12:00:00 29 9 Nordeste 17 Este 0 898.3 0.8 38
2017-07-29 11:00:00 27.9 5 Nordeste 12 Este 0 898.4 1.1 37
2017-07-29 10:00:00 25.2 0 Calma 6 Norte 0 898.6 2.1 46
2017-07-29 09:00:00 20.6 2 Noroeste 6 Oeste 0 897.5 0.6 55
2017-07-29 08:00:00 15.6 4 Noroeste 7 Oeste 0 897.3 -0.6 65
2017-07-29 07:00:00 14 4 Oeste 8 Oeste 0 896.5 -1.8 67
2017-07-29 06:00:00 14 2 Oeste 4 Este 0 896.9 -1.7 71
2017-07-29 05:00:00 15.4 3 Noroeste 8 Noroeste 0 897.9 0.8 64
2017-07-29 04:00:00 15.9 3 Noroeste 7 Oeste 0 898.3 0.5 65
2017-07-29 03:00:00 16.7 4 Noroeste 8 Noroeste 0 898.6 0.3 62
2017-07-29 02:00:00 18.1 0 Calma 4 Nordeste 0 897.1 -1.1 56
2017-07-29 01:00:00 20.7 3 Noroeste 13 Oeste 0 897.8 0 48
2017-07-29 00:00:00 23 5 Noroeste 10 Noroeste 0 898.3 1.1 44
2017-07-28 23:00:00 23.4 0 Calma 9 Este 0 898.2 1.6 37
2017-07-28 22:00:00 26.2 4 Nordeste 17 Oeste 0 897.8 1.4 30
2017-07-28 21:00:00 30.2 10 Noroeste 24 Noroeste 0 897.2 0.6 27
2017-07-28 20:00:00 31.2 13 Noroeste 27 Oeste 0 896.6 0 28
2017-07-28 19:00:00 32.8 14 Oeste 29 Oeste 0 896.4 -0.7 26
2017-07-28 18:00:00 33.9 5 Noroeste 24 Oeste 0 896.6 -0.9 27
2017-07-28 17:00:00 33.8 8 Noroeste 27 Nordeste 0 896.6 -1.4 27
2017-07-28 16:00:00 32.4 6 Nordeste 22 Nordeste 0 897.1 -1 32
2017-07-28 15:00:00 32.2 6 Norte 22 Noroeste 0 897.5 -0.6 34
2017-07-28 14:00:00 31.4 8 Noroeste 19 Norte 0 898 -0.3 30
2017-07-28 13:00:00 31.5 3 Norte 16 Este 0 898.1 -0.1 32
2017-07-28 12:00:00 30 4 Noroeste 13 Noroeste 0 898.1 0.5 34
2017-07-28 11:00:00 28.2 4 Nordeste 8 Oeste 0 898.3 0.3 43
2017-07-28 10:00:00 23.3 6 Oeste 9 Oeste 0 898.2 0.7 52
2017-07-28 09:00:00 19.7 3 Oeste 11 Oeste 0 897.6 -0.6 56
2017-07-28 08:00:00 16.6 4 Oeste 12 Oeste 0 898 1.6 64
2017-07-28 07:00:00 14.7 2 Noroeste 9 Oeste 0 897.5 1.3 64
2017-07-28 06:00:00 15.6 2 Norte 8 Noroeste 0 898.2 1 56
2017-07-28 05:00:00 19 6 Noroeste 12 Oeste 0 896.4 -0.8 48
2017-07-28 04:00:00 18.9 4 Norte 8 Norte 0 896.2 -0.3 46
2017-07-28 03:00:00 21.2 3 Noroeste 19 Noroeste 0 897.2 0.2 39
2017-07-28 02:00:00 22.6 6 Noroeste 19 Noroeste 0 897.2 0.3 36
2017-07-28 01:00:00 19.6 3 Noroeste 10 Noroeste 0 896.5 0.2 37
2017-07-28 00:00:00 22 0 Calma 14 Oeste 0 897 1.3 33
2017-07-27 23:00:00 22.6 6 Noroeste 10 Oeste 0 896.9 1.6 35
2017-07-27 22:00:00 25.2 3 Noroeste 12 Noroeste 0 896.3 0.9 33
2017-07-27 21:00:00 29.6 6 Oeste 22 Oeste 0 895.7 0.2 30
2017-07-27 20:00:00 31.8 10 Oeste 26 Oeste 0 895.3 -0.6 30
2017-07-27 19:00:00 32.4 14 Oeste 31 Noroeste 0 895.4 -0.8 29
2017-07-27 18:00:00 33.1 12 Oeste 28 Noroeste 0 895.5 -1 29
2017-07-27 17:00:00 33.3 10 Oeste 30 Oeste 0 895.9 -0.9 28
2017-07-27 16:00:00 32.7 13 Oeste 36 Oeste 0 896.2 -0.9 30
2017-07-27 15:00:00 31.9 12 Oeste 32 Oeste 0 896.5 -0.8 30
2017-07-27 14:00:00 31.8 11 Noroeste 25 Oeste 0 896.8 -0.7 32
2017-07-27 13:00:00 30.5 9 Nordeste 17 Este 0 897.1 -0.5 34
2017-07-27 12:00:00 29.2 4 Norte 12 Norte 0 897.3 -0.6 34
2017-07-27 11:00:00 27.9 4 Nordeste 9 Nordeste 0 897.5 2 37
2017-07-27 10:00:00 23.4 0 Calma 6 Norte 0 897.6 2.3 51
2017-07-27 09:00:00 19.6 0 Calma 6 Oeste 0 897.9 2.7 59
2017-07-27 08:00:00 13.8 3 Noroeste 7 Oeste 0 895.5 0.4 72
2017-07-27 07:00:00 11.4 0 Calma 9 Oeste 0 895.3 0.1 75
2017-07-27 06:00:00 12.1 6 Noroeste 10 Noroeste 0 895.2 -1.2 74
2017-07-27 05:00:00 12.2 0 Calma 9 Noroeste 0 895.1 -2.2 73
2017-07-27 04:00:00 12.4 3 Noroeste 5 Oeste 0 895.2 -3.4 71
2017-07-27 03:00:00 14 2 Noroeste 6 Nordeste 0 896.4 -1.1 67
2017-07-27 02:00:00 14.5 4 Noroeste 6 Oeste 0 897.3 0.4 63
2017-07-27 01:00:00 16.7 3 Noroeste 6 Noroeste 0 898.6 1.4 60
2017-07-27 00:00:00 17.5 0 Calma 7 Noroeste 0 897.5 0.6 55
2017-07-26 23:00:00 18.9 0 Calma 8 Noroeste 0 896.9 0.3 50
2017-07-26 22:00:00 22.9 7 Noroeste 10 Oeste 0 897.2 0.7 41
2017-07-26 21:00:00 27.6 5 Noroeste 16 Noroeste 0 896.9 0.2 36
2017-07-26 20:00:00 28.8 8 Norte 22 Noroeste 0 896.6 -0.4 34
2017-07-26 19:00:00 29.3 9 Noroeste 21 Noroeste 0 896.5 -0.7 34
2017-07-26 18:00:00 29.1 8 Noroeste 26 Noroeste 0 896.7 -0.7 34
2017-07-26 17:00:00 28.9 12 Noroeste 28 Oeste 0 897 -0.9 36
2017-07-26 16:00:00 28.4 10 Noroeste 31 Noroeste 0 897.2 -0.8 38
2017-07-26 15:00:00 27.5 12 Noroeste 36 Oeste 0 897.4 -0.4 40
2017-07-26 14:00:00 26.1 14 Noroeste 27 Noroeste 0 897.9 0.1 41
2017-07-26 13:00:00 25.2 12 Norte 33 Noroeste 0 898 0.2 42
2017-07-26 12:00:00 23.8 15 Noroeste 30 Noroeste 0 897.8 -0.2 45
2017-07-26 11:00:00 23 12 Noroeste 26 Norte 0 897.8 2.3 47
2017-07-26 10:00:00 21.8 13 Noroeste 27 Norte 0 897.8 2.5 50
2017-07-26 09:00:00 17.7 3 Norte 7 Norte 0 898 2.7 65
2017-07-26 08:00:00 12.7 0 Calma 4 Noroeste 0 895.5 0.1 72
2017-07-26 07:00:00 11.6 3 Nordeste 6 Norte 0 895.3 -3.1 69
2017-07-26 06:00:00 12.6 0 Calma 5 Nordeste 0 895.3 -2.5 62
2017-07-26 05:00:00 12.2 3 Noroeste 5 Nordeste 0 895.4 -2.2 61
2017-07-26 04:00:00 15.3 2 Norte 20 Oeste 0 898.4 0.6 51
2017-07-26 03:00:00 16.6 8 Noroeste 22 Noroeste 0 897.8 -1.6 47
2017-07-26 02:00:00 16.2 12 Noroeste 21 Noroeste 0 897.6 -0.3 51
2017-07-26 01:00:00 16.4 12 Noroeste 19 Noroeste 0 897.8 0.9 51
2017-07-26 00:00:00 17 9 Noroeste 27 Noroeste 0 899.4 2.4 47
2017-07-25 23:00:00 18.5 14 Noroeste 24 Noroeste 0 897.9 1.1 42
2017-07-25 22:00:00 19.7 9 Noroeste 28 Noroeste 0 896.9 0.2 37
2017-07-25 21:00:00 22.4 15 Noroeste 32 Noroeste 0 897 0.2 33
2017-07-25 20:00:00 24.2 17 Noroeste 31 Oeste 0 896.8 -0.2 30
2017-07-25 19:00:00 25.4 17 Noroeste 31 Noroeste 0 896.7 -0.7 31
2017-07-25 18:00:00 26.2 13 Noroeste 32 Noroeste 0 896.8 -0.8 30
2017-07-25 17:00:00 26.2 13 Noroeste 28 Noroeste 0 897 -0.9 30
2017-07-25 16:00:00 25.9 13 Noroeste 28 Norte 0 897.4 -0.6 31
2017-07-25 15:00:00 25.4 9 Norte 25 Noroeste 0 897.6 -0.4 33
2017-07-25 14:00:00 24.4 10 Norte 29 Norte 0 897.9 0.3 35
2017-07-25 13:00:00 23 11 Noroeste 39 Nordeste 0 898 -0.3 41
2017-07-25 12:00:00 22 12 Norte 28 Noroeste 0 898 -0.1 43
2017-07-25 11:00:00 20 13 Norte 26 Norte 0 897.6 2.4 49
2017-07-25 10:00:00 20 5 Nordeste 10 Norte 0 898.3 1.8 52
2017-07-25 09:00:00 16.1 3 Noroeste 9 Oeste 0 898.1 1 70
2017-07-25 08:00:00 11.6 0 Calma 5 Oeste 0 895.2 -3.3 87
2017-07-25 07:00:00 10.3 2 Noroeste 7 Noroeste 0 896.5 -2.4 81
2017-07-25 06:00:00 13.3 5 Noroeste 13 Noroeste 0 897.1 -2.8 72
2017-07-25 05:00:00 13.7 0 Calma 14 Noroeste 0 898.5 -1.6 66
2017-07-25 04:00:00 15.9 10 Noroeste 15 Noroeste 0 898.9 -2.3 64
2017-07-25 03:00:00 16 8 Noroeste 16 Noroeste 0 899.9 0.5 63
2017-07-25 02:00:00 16.2 9 Noroeste 15 Noroeste 0 900.1 0.9 62
2017-07-25 01:00:00 17.3 9 Oeste 20 Oeste 0 901.2 1.8 59
2017-07-25 00:00:00 18 3 Noroeste 13 Noroeste 0 899.4 -0.1 55
2017-07-24 23:00:00 20.6 8 Noroeste 20 Noroeste 0 899.2 -0.1 48
2017-07-24 22:00:00 21 7 Noroeste 14 Norte 0 899.4 -0.1 45
2017-07-24 21:00:00 24.9 8 Noroeste 19 Noroeste 0 899.5 -0.1 38
2017-07-24 20:00:00 26.1 10 Noroeste 27 Noroeste 0 899.3 -0.5 37
2017-07-24 19:00:00 26.4 13 Noroeste 27 Norte 0 899.5 -0.6 37
2017-07-24 18:00:00 26.7 10 Noroeste 26 Noroeste 0 899.6 -0.6 37
2017-07-24 17:00:00 26.3 15 Noroeste 32 Noroeste 0 899.8 -0.9 37
2017-07-24 16:00:00 26 12 Noroeste 31 Noroeste 0 900.1 -0.8 39
2017-07-24 15:00:00 25.3 13 Noroeste 29 Noroeste 0 900.2 -0.5 43
2017-07-24 14:00:00 24.4 13 Noroeste 28 Noroeste 0 900.7 0.3 46
2017-07-24 13:00:00 23 12 Norte 29 Oeste 0 900.9 0.9 52
2017-07-24 12:00:00 21.8 12 Noroeste 28 Noroeste 0 900.7 1 55
2017-07-24 11:00:00 20.7 10 Noroeste 22 Noroeste 0 900.4 -0.4 58
2017-07-24 10:00:00 20 11 Noroeste 25 Noroeste 0 900 0.7 60
2017-07-24 09:00:00 20.4 4 Nordeste 9 Oeste 0 899.7 -1.1 61
2017-07-24 08:00:00 17.7 4 Norte 15 Noroeste 0 900.8 1.3 68
2017-07-24 07:00:00 15.2 7 Noroeste 12 Noroeste 0 899.3 0.7 73
2017-07-24 06:00:00 16 3 Noroeste 14 Oeste 0 900.8 1.6 67
2017-07-24 05:00:00 16.5 8 Noroeste 18 Oeste 0 899.5 -0.5 67
2017-07-24 04:00:00 14 2 Norte 12 Noroeste 0 898.6 -2 65
2017-07-24 03:00:00 14.8 2 Norte 13 Oeste 0 899.2 -0.1 60
2017-07-24 02:00:00 15.2 4 Norte 13 Oeste 0 900 0.7 58
2017-07-24 01:00:00 15.8 5 Noroeste 10 Norte 0 900.6 1.3 53
2017-07-24 00:00:00 18 3 Nordeste 12 Noroeste 0 899.3 0.2 47
2017-07-23 23:00:00 20.7 8 Noroeste 14 Noroeste 0 899.3 0.6 41
2017-07-23 22:00:00 22 8 Noroeste 19 Oeste 0 899.3 0.8 39
2017-07-23 21:00:00 26.3 10 Oeste 24 Noroeste 0 899.1 0.8 34
2017-07-23 20:00:00 27.8 13 Noroeste 28 Oeste 0 898.7 0.1 31
2017-07-23 19:00:00 28.5 16 Oeste 34 Oeste 0 898.5 -0.1 30
2017-07-23 18:00:00 28.7 18 Noroeste 32 Oeste 0 898.3 -0.7 30
2017-07-23 17:00:00 29.7 14 Noroeste 31 Oeste 0 898.6 -0.8 30
2017-07-23 16:00:00 29.5 15 Noroeste 30 Oeste 0 898.6 -0.8 30
2017-07-23 15:00:00 29.1 14 Oeste 27 Noroeste 0 899 -0.3 32
2017-07-23 14:00:00 28.8 8 Noroeste 23 Oeste 0 899.4 0.2 33
2017-07-23 13:00:00 27.6 10 Nordeste 22 Nordeste 0 899.4 0.7 37
2017-07-23 12:00:00 27 6 Noroeste 17 Noroeste 0 899.3 0 36
2017-07-23 11:00:00 24.8 4 Noroeste 9 Noroeste 0 899.2 1.7 43
2017-07-23 10:00:00 21.2 4 Oeste 9 Noroeste 0 898.7 0.6 52
2017-07-23 09:00:00 17.1 5 Oeste 9 Oeste 0 899.3 2.3 62
2017-07-23 08:00:00 13.9 2 Noroeste 10 Noroeste 0 897.5 0.2 69
2017-07-23 07:00:00 11.7 5 Noroeste 9 Noroeste 0 898.1 0.7 72
2017-07-23 06:00:00 12.7 6 Oeste 9 Oeste 0 897 -0.7 68
2017-07-23 05:00:00 13.6 5 Noroeste 10 Oeste 0 897.3 -0.2 66
2017-07-23 04:00:00 13.8 5 Noroeste 9 Oeste 0 897.4 -1.2 66
2017-07-23 03:00:00 14 4 Oeste 8 Noroeste 0 897.7 0 64
2017-07-23 02:00:00 14.4 4 Noroeste 8 Oeste 0 897.5 0 62
2017-07-23 01:00:00 15.2 0 Calma 6 Noroeste 0 898.6 1.4 54
2017-07-23 00:00:00 17.7 0 Calma 9 Noroeste 0 897.7 1.3 45